Terminal Aerodrome Forecast
Issued by NWS

Home | Current Version | Previous Version | Text Only | Print | Product List | Glossary Off
Versions: 1 2 3 4 5 6 7 8 9 10 11 12 13 14 15 16 17 18 19 20

000
FTUS43 KICT 260319 AAA
TAFHUT
TAF AMD
KHUT 260319Z 2603/2624 05010G19KT P6SM -SHRA OVC060
      TEMPO 2603/2607 VRB15G25KT 3SM TSRA OVC035CB
     FM260900 VRB05KT 4SM BR SCT008 BKN200
     FM261700 25007KT P6SM SCT040
     FM262000 VRB06KT P6SM VCTS SCT040CB BKN070=

USA.gov is the U.S. government's official web portal to all federal, state and local government web resources and services.